sensor_id;sensor_type;location;lat;lon;timestamp;P1;durP1;ratioP1;P2;durP2;ratioP2
18822;SDS011;9540;51.550;7.980;2022-09-13T00:02:20;4.97;;;3.67;;
18822;SDS011;9540;51.550;7.980;2022-09-13T00:04:49;3.50;;;3.13;;
18822;SDS011;9540;51.550;7.980;2022-09-13T00:07:16;3.83;;;2.92;;
18822;SDS011;9540;51.550;7.980;2022-09-13T00:09:43;8.18;;;3.45;;
18822;SDS011;9540;51.550;7.980;2022-09-13T00:12:10;3.25;;;2.85;;
18822;SDS011;9540;51.550;7.980;2022-09-13T00:14:37;3.30;;;3.08;;
18822;SDS011;9540;51.550;7.980;2022-09-13T00:17:07;3.42;;;3.13;;
18822;SDS011;9540;51.550;7.980;2022-09-13T00:19:34;4.85;;;3.40;;
18822;SDS011;9540;51.550;7.980;2022-09-13T00:22:03;5.38;;;3.53;;
18822;SDS011;9540;51.550;7.980;2022-09-13T00:24:31;5.13;;;3.22;;
18822;SDS011;9540;51.550;7.980;2022-09-13T00:26:58;7.03;;;3.05;;
18822;SDS011;9540;51.550;7.980;2022-09-13T00:29:26;3.22;;;2.95;;
18822;SDS011;9540;51.550;7.980;2022-09-13T00:31:53;3.15;;;2.85;;
18822;SDS011;9540;51.550;7.980;2022-09-13T00:34:20;3.97;;;2.95;;
18822;SDS011;9540;51.550;7.980;2022-09-13T00:36:47;3.08;;;2.65;;
18822;SDS011;9540;51.550;7.980;2022-09-13T00:39:15;6.82;;;2.85;;
18822;SDS011;9540;51.550;7.980;2022-09-13T00:41:43;3.60;;;2.65;;
18822;SDS011;9540;51.550;7.980;2022-09-13T00:47:16;3.28;;;3.03;;
18822;SDS011;9540;51.550;7.980;2022-09-13T00:49:46;4.45;;;3.15;;
18822;SDS011;9540;51.550;7.980;2022-09-13T00:52:17;3.13;;;2.83;;
18822;SDS011;9540;51.550;7.980;2022-09-13T00:54:48;4.47;;;2.80;;
18822;SDS011;9540;51.550;7.980;2022-09-13T00:57:20;3.30;;;3.00;;
18822;SDS011;9540;51.550;7.980;2022-09-13T00:59:50;3.22;;;2.90;;
18822;SDS011;9540;51.550;7.980;2022-09-13T01:02:23;3.17;;;2.97;;
18822;SDS011;9540;51.550;7.980;2022-09-13T01:04:51;3.35;;;3.08;;
18822;SDS011;9540;51.550;7.980;2022-09-13T01:07:18;4.15;;;2.50;;
18822;SDS011;9540;51.550;7.980;2022-09-13T01:09:46;5.00;;;2.72;;
18822;SDS011;9540;51.550;7.980;2022-09-13T01:12:17;3.10;;;2.80;;
18822;SDS011;9540;51.550;7.980;2022-09-13T01:14:52;2.50;;;2.33;;
18822;SDS011;9540;51.550;7.980;2022-09-13T01:17:20;2.88;;;2.33;;
18822;SDS011;9540;51.550;7.980;2022-09-13T01:19:47;3.42;;;2.80;;
18822;SDS011;9540;51.550;7.980;2022-09-13T01:22:29;2.50;;;2.40;;
18822;SDS011;9540;51.550;7.980;2022-09-13T01:31:38;3.33;;;2.30;;
18822;SDS011;9540;51.550;7.980;2022-09-13T01:34:15;3.92;;;2.72;;
18822;SDS011;9540;51.550;7.980;2022-09-13T01:36:59;2.75;;;2.20;;
18822;SDS011;9540;51.550;7.980;2022-09-13T01:39:43;5.32;;;2.35;;
18822;SDS011;9540;51.550;7.980;2022-09-13T01:42:25;3.35;;;2.75;;
18822;SDS011;9540;51.550;7.980;2022-09-13T01:45:05;2.28;;;2.10;;
18822;SDS011;9540;51.550;7.980;2022-09-13T01:50:17;2.60;;;2.40;;
18822;SDS011;9540;51.550;7.980;2022-09-13T01:52:49;4.43;;;2.25;;
18822;SDS011;9540;51.550;7.980;2022-09-13T01:55:31;3.10;;;2.45;;
18822;SDS011;9540;51.550;7.980;2022-09-13T01:58:06;2.90;;;2.53;;
18822;SDS011;9540;51.550;7.980;2022-09-13T02:00:40;4.25;;;2.30;;
18822;SDS011;9540;51.550;7.980;2022-09-13T02:03:15;4.93;;;2.70;;
18822;SDS011;9540;51.550;7.980;2022-09-13T02:05:46;3.03;;;2.17;;
18822;SDS011;9540;51.550;7.980;2022-09-13T02:08:17;2.65;;;2.45;;
18822;SDS011;9540;51.550;7.980;2022-09-13T02:10:50;2.67;;;2.47;;
18822;SDS011;9540;51.550;7.980;2022-09-13T02:13:23;4.85;;;2.60;;
18822;SDS011;9540;51.550;7.980;2022-09-13T02:15:54;2.30;;;2.10;;
18822;SDS011;9540;51.550;7.980;2022-09-13T02:18:28;2.38;;;2.17;;
18822;SDS011;9540;51.550;7.980;2022-09-13T02:21:00;3.50;;;2.15;;
18822;SDS011;9540;51.550;7.980;2022-09-13T02:23:33;2.55;;;2.28;;
18822;SDS011;9540;51.550;7.980;2022-09-13T02:26:04;3.78;;;2.20;;
18822;SDS011;9540;51.550;7.980;2022-09-13T02:28:34;4.53;;;2.53;;
18822;SDS011;9540;51.550;7.980;2022-09-13T02:31:05;3.20;;;2.40;;
18822;SDS011;9540;51.550;7.980;2022-09-13T02:33:36;3.13;;;2.30;;
18822;SDS011;9540;51.550;7.980;2022-09-13T02:36:08;4.47;;;2.03;;
18822;SDS011;9540;51.550;7.980;2022-09-13T02:38:39;2.40;;;2.17;;
18822;SDS011;9540;51.550;7.980;2022-09-13T02:41:15;2.25;;;2.05;;
18822;SDS011;9540;51.550;7.980;2022-09-13T02:43:48;3.67;;;2.22;;
18822;SDS011;9540;51.550;7.980;2022-09-13T02:46:20;2.58;;;2.38;;
18822;SDS011;9540;51.550;7.980;2022-09-13T02:48:55;4.18;;;2.30;;
18822;SDS011;9540;51.550;7.980;2022-09-13T02:51:28;2.33;;;2.20;;
18822;SDS011;9540;51.550;7.980;2022-09-13T02:54:00;2.63;;;2.00;;
18822;SDS011;9540;51.550;7.980;2022-09-13T02:56:37;3.33;;;2.47;;
18822;SDS011;9540;51.550;7.980;2022-09-13T02:59:11;2.88;;;2.15;;
18822;SDS011;9540;51.550;7.980;2022-09-13T03:01:42;2.75;;;2.47;;
18822;SDS011;9540;51.550;7.980;2022-09-13T03:04:13;4.43;;;2.30;;
18822;SDS011;9540;51.550;7.980;2022-09-13T03:06:40;2.10;;;2.00;;
18822;SDS011;9540;51.550;7.980;2022-09-13T03:09:08;2.22;;;2.03;;
18822;SDS011;9540;51.550;7.980;2022-09-13T03:11:40;3.60;;;2.10;;
18822;SDS011;9540;51.550;7.980;2022-09-13T03:14:26;2.63;;;2.38;;
18822;SDS011;9540;51.550;7.980;2022-09-13T03:17:06;2.20;;;2.10;;
18822;SDS011;9540;51.550;7.980;2022-09-13T03:22:37;3.30;;;2.67;;
18822;SDS011;9540;51.550;7.980;2022-09-13T03:25:19;2.15;;;2.05;;
18822;SDS011;9540;51.550;7.980;2022-09-13T03:27:57;2.25;;;1.98;;
18822;SDS011;9540;51.550;7.980;2022-09-13T03:30:33;2.80;;;2.30;;
18822;SDS011;9540;51.550;7.980;2022-09-13T03:33:05;2.33;;;2.13;;
18822;SDS011;9540;51.550;7.980;2022-09-13T03:35:43;3.05;;;2.22;;
18822;SDS011;9540;51.550;7.980;2022-09-13T03:38:18;3.58;;;2.08;;
18822;SDS011;9540;51.550;7.980;2022-09-13T03:40:49;2.30;;;2.10;;
18822;SDS011;9540;51.550;7.980;2022-09-13T03:43:19;3.08;;;2.78;;
18822;SDS011;9540;51.550;7.980;2022-09-13T03:45:51;4.55;;;2.22;;
18822;SDS011;9540;51.550;7.980;2022-09-13T03:48:22;3.75;;;2.28;;
18822;SDS011;9540;51.550;7.980;2022-09-13T03:50:53;5.55;;;1.95;;
18822;SDS011;9540;51.550;7.980;2022-09-13T03:53:21;4.75;;;2.20;;
18822;SDS011;9540;51.550;7.980;2022-09-13T03:55:51;5.43;;;2.50;;
18822;SDS011;9540;51.550;7.980;2022-09-13T03:58:19;2.40;;;2.20;;
18822;SDS011;9540;51.550;7.980;2022-09-13T04:00:47;4.03;;;2.40;;
18822;SDS011;9540;51.550;7.980;2022-09-13T04:03:14;2.38;;;2.17;;
18822;SDS011;9540;51.550;7.980;2022-09-13T04:05:41;3.05;;;2.25;;
18822;SDS011;9540;51.550;7.980;2022-09-13T04:08:10;2.05;;;1.95;;
18822;SDS011;9540;51.550;7.980;2022-09-13T04:10:37;4.45;;;2.30;;
18822;SDS011;9540;51.550;7.980;2022-09-13T04:13:04;3.85;;;2.28;;
18822;SDS011;9540;51.550;7.980;2022-09-13T04:15:31;3.03;;;2.17;;
18822;SDS011;9540;51.550;7.980;2022-09-13T04:17:59;2.97;;;2.38;;
18822;SDS011;9540;51.550;7.980;2022-09-13T04:20:26;3.22;;;2.35;;
18822;SDS011;9540;51.550;7.980;2022-09-13T04:22:54;3.13;;;2.80;;
18822;SDS011;9540;51.550;7.980;2022-09-13T04:25:24;3.95;;;2.60;;
18822;SDS011;9540;51.550;7.980;2022-09-13T04:27:54;6.68;;;2.60;;
18822;SDS011;9540;51.550;7.980;2022-09-13T04:30:23;2.70;;;2.50;;
18822;SDS011;9540;51.550;7.980;2022-09-13T04:32:51;4.43;;;2.25;;
18822;SDS011;9540;51.550;7.980;2022-09-13T04:35:18;2.42;;;2.22;;
18822;SDS011;9540;51.550;7.980;2022-09-13T04:37:45;5.18;;;2.40;;
18822;SDS011;9540;51.550;7.980;2022-09-13T04:40:13;2.53;;;2.33;;
18822;SDS011;9540;51.550;7.980;2022-09-13T04:42:41;2.83;;;2.53;;
18822;SDS011;9540;51.550;7.980;2022-09-13T04:45:10;3.83;;;2.30;;
18822;SDS011;9540;51.550;7.980;2022-09-13T04:47:37;2.17;;;1.98;;
18822;SDS011;9540;51.550;7.980;2022-09-13T04:50:05;2.47;;;2.28;;
18822;SDS011;9540;51.550;7.980;2022-09-13T04:52:32;5.18;;;2.13;;
18822;SDS011;9540;51.550;7.980;2022-09-13T04:54:59;2.92;;;2.10;;
18822;SDS011;9540;51.550;7.980;2022-09-13T04:57:27;4.85;;;2.38;;
18822;SDS011;9540;51.550;7.980;2022-09-13T04:59:55;3.45;;;1.92;;
18822;SDS011;9540;51.550;7.980;2022-09-13T05:02:22;2.20;;;2.05;;
18822;SDS011;9540;51.550;7.980;2022-09-13T05:04:49;2.17;;;2.00;;
18822;SDS011;9540;51.550;7.980;2022-09-13T05:07:17;2.65;;;2.45;;
18822;SDS011;9540;51.550;7.980;2022-09-13T05:09:44;4.00;;;2.17;;
18822;SDS011;9540;51.550;7.980;2022-09-13T05:12:11;3.35;;;1.90;;
18822;SDS011;9540;51.550;7.980;2022-09-13T05:14:38;3.60;;;2.25;;
18822;SDS011;9540;51.550;7.980;2022-09-13T05:17:06;5.65;;;2.60;;
18822;SDS011;9540;51.550;7.980;2022-09-13T05:19:33;5.20;;;2.25;;
18822;SDS011;9540;51.550;7.980;2022-09-13T05:22:01;2.60;;;2.40;;
18822;SDS011;9540;51.550;7.980;2022-09-13T05:24:28;2.78;;;2.33;;
18822;SDS011;9540;51.550;7.980;2022-09-13T05:26:55;5.35;;;2.28;;
18822;SDS011;9540;51.550;7.980;2022-09-13T05:29:22;5.05;;;2.30;;
18822;SDS011;9540;51.550;7.980;2022-09-13T05:31:50;2.30;;;2.10;;
18822;SDS011;9540;51.550;7.980;2022-09-13T05:34:18;2.88;;;2.30;;
18822;SDS011;9540;51.550;7.980;2022-09-13T05:36:45;3.58;;;2.00;;
18822;SDS011;9540;51.550;7.980;2022-09-13T05:39:15;3.05;;;2.08;;
18822;SDS011;9540;51.550;7.980;2022-09-13T05:41:43;3.40;;;2.33;;
18822;SDS011;9540;51.550;7.980;2022-09-13T05:44:10;3.85;;;2.15;;
18822;SDS011;9540;51.550;7.980;2022-09-13T05:46:37;2.13;;;2.03;;
18822;SDS011;9540;51.550;7.980;2022-09-13T05:49:04;4.47;;;1.90;;
18822;SDS011;9540;51.550;7.980;2022-09-13T05:51:33;2.17;;;1.83;;
18822;SDS011;9540;51.550;7.980;2022-09-13T05:54:00;3.40;;;1.90;;
18822;SDS011;9540;51.550;7.980;2022-09-13T05:56:27;3.05;;;2.25;;
18822;SDS011;9540;51.550;7.980;2022-09-13T05:58:56;2.08;;;1.98;;
18822;SDS011;9540;51.550;7.980;2022-09-13T06:01:24;3.38;;;1.80;;
18822;SDS011;9540;51.550;7.980;2022-09-13T06:03:53;6.05;;;1.98;;
18822;SDS011;9540;51.550;7.980;2022-09-13T06:06:21;3.50;;;2.50;;
18822;SDS011;9540;51.550;7.980;2022-09-13T06:08:52;2.78;;;2.22;;
18822;SDS011;9540;51.550;7.980;2022-09-13T06:11:24;3.58;;;2.20;;
18822;SDS011;9540;51.550;7.980;2022-09-13T06:13:53;1.92;;;1.80;;
18822;SDS011;9540;51.550;7.980;2022-09-13T06:16:20;10.30;;;3.28;;
18822;SDS011;9540;51.550;7.980;2022-09-13T06:18:47;2.22;;;2.00;;
18822;SDS011;9540;51.550;7.980;2022-09-13T06:21:15;1.85;;;1.75;;
18822;SDS011;9540;51.550;7.980;2022-09-13T06:23:44;3.22;;;2.00;;
18822;SDS011;9540;51.550;7.980;2022-09-13T06:26:14;3.85;;;2.17;;
18822;SDS011;9540;51.550;7.980;2022-09-13T06:28:41;2.92;;;2.25;;
18822;SDS011;9540;51.550;7.980;2022-09-13T06:31:12;4.03;;;2.13;;
18822;SDS011;9540;51.550;7.980;2022-09-13T06:33:41;3.35;;;2.38;;
18822;SDS011;9540;51.550;7.980;2022-09-13T06:36:09;4.35;;;2.45;;
18822;SDS011;9540;51.550;7.980;2022-09-13T06:38:38;2.30;;;2.10;;
18822;SDS011;9540;51.550;7.980;2022-09-13T06:41:07;5.13;;;1.95;;
18822;SDS011;9540;51.550;7.980;2022-09-13T06:43:37;2.70;;;1.73;;
18822;SDS011;9540;51.550;7.980;2022-09-13T06:46:07;4.45;;;2.38;;
18822;SDS011;9540;51.550;7.980;2022-09-13T06:48:36;2.50;;;2.17;;
18822;SDS011;9540;51.550;7.980;2022-09-13T06:51:05;4.30;;;2.85;;
18822;SDS011;9540;51.550;7.980;2022-09-13T06:53:34;3.25;;;2.40;;
18822;SDS011;9540;51.550;7.980;2022-09-13T06:56:02;7.00;;;2.40;;
18822;SDS011;9540;51.550;7.980;2022-09-13T06:58:31;5.95;;;2.65;;
18822;SDS011;9540;51.550;7.980;2022-09-13T07:01:08;2.22;;;1.98;;
18822;SDS011;9540;51.550;7.980;2022-09-13T07:03:38;3.45;;;2.67;;
18822;SDS011;9540;51.550;7.980;2022-09-13T07:06:10;2.15;;;1.95;;
18822;SDS011;9540;51.550;7.980;2022-09-13T07:08:39;2.03;;;1.92;;
18822;SDS011;9540;51.550;7.980;2022-09-13T07:11:07;2.90;;;1.85;;
18822;SDS011;9540;51.550;7.980;2022-09-13T07:13:35;5.13;;;2.40;;
18822;SDS011;9540;51.550;7.980;2022-09-13T07:16:03;3.72;;;2.00;;
18822;SDS011;9540;51.550;7.980;2022-09-13T07:18:33;2.13;;;2.03;;
18822;SDS011;9540;51.550;7.980;2022-09-13T07:21:01;7.32;;;2.30;;
18822;SDS011;9540;51.550;7.980;2022-09-13T07:23:30;1.92;;;1.83;;
18822;SDS011;9540;51.550;7.980;2022-09-13T07:25:58;3.53;;;2.42;;
18822;SDS011;9540;51.550;7.980;2022-09-13T07:28:30;4.88;;;2.53;;
18822;SDS011;9540;51.550;7.980;2022-09-13T07:31:03;3.55;;;1.90;;
18822;SDS011;9540;51.550;7.980;2022-09-13T07:33:32;3.45;;;2.55;;
18822;SDS011;9540;51.550;7.980;2022-09-13T07:36:00;2.75;;;2.17;;
18822;SDS011;9540;51.550;7.980;2022-09-13T07:38:30;4.40;;;2.33;;
18822;SDS011;9540;51.550;7.980;2022-09-13T07:40:59;3.85;;;3.08;;
18822;SDS011;9540;51.550;7.980;2022-09-13T07:43:26;4.65;;;2.20;;
18822;SDS011;9540;51.550;7.980;2022-09-13T07:45:57;2.80;;;2.28;;
18822;SDS011;9540;51.550;7.980;2022-09-13T07:48:25;4.88;;;2.17;;
18822;SDS011;9540;51.550;7.980;2022-09-13T07:51:02;2.90;;;2.00;;
18822;SDS011;9540;51.550;7.980;2022-09-13T07:53:31;3.15;;;2.33;;
18822;SDS011;9540;51.550;7.980;2022-09-13T07:56:00;2.90;;;2.60;;
18822;SDS011;9540;51.550;7.980;2022-09-13T07:58:28;3.20;;;2.17;;
18822;SDS011;9540;51.550;7.980;2022-09-13T08:00:57;3.33;;;1.92;;
18822;SDS011;9540;51.550;7.980;2022-09-13T08:03:29;2.95;;;1.90;;
18822;SDS011;9540;51.550;7.980;2022-09-13T08:05:57;2.30;;;2.10;;
18822;SDS011;9540;51.550;7.980;2022-09-13T08:08:28;2.65;;;1.70;;
18822;SDS011;9540;51.550;7.980;2022-09-13T08:10:56;2.67;;;2.10;;
18822;SDS011;9540;51.550;7.980;2022-09-13T08:13:23;4.78;;;2.47;;
18822;SDS011;9540;51.550;7.980;2022-09-13T08:15:50;2.50;;;1.98;;
18822;SDS011;9540;51.550;7.980;2022-09-13T08:18:18;3.17;;;2.00;;
18822;SDS011;9540;51.550;7.980;2022-09-13T08:20:45;3.47;;;2.13;;
18822;SDS011;9540;51.550;7.980;2022-09-13T08:23:13;2.33;;;1.73;;
18822;SDS011;9540;51.550;7.980;2022-09-13T08:25:42;2.70;;;1.80;;
18822;SDS011;9540;51.550;7.980;2022-09-13T08:28:12;2.25;;;1.90;;
18822;SDS011;9540;51.550;7.980;2022-09-13T08:30:41;2.05;;;1.88;;
18822;SDS011;9540;51.550;7.980;2022-09-13T08:33:08;2.38;;;1.92;;
18822;SDS011;9540;51.550;7.980;2022-09-13T08:35:37;2.20;;;2.00;;
18822;SDS011;9540;51.550;7.980;2022-09-13T08:38:05;3.42;;;1.88;;
18822;SDS011;9540;51.550;7.980;2022-09-13T08:40:39;2.00;;;1.80;;
18822;SDS011;9540;51.550;7.980;2022-09-13T08:43:13;3.97;;;2.20;;
18822;SDS011;9540;51.550;7.980;2022-09-13T08:45:49;2.60;;;2.40;;
18822;SDS011;9540;51.550;7.980;2022-09-13T08:48:19;3.83;;;2.42;;
18822;SDS011;9540;51.550;7.980;2022-09-13T08:50:52;4.18;;;3.15;;
18822;SDS011;9540;51.550;7.980;2022-09-13T08:53:22;9.43;;;2.78;;
18822;SDS011;9540;51.550;7.980;2022-09-13T08:55:55;5.35;;;2.75;;
18822;SDS011;9540;51.550;7.980;2022-09-13T09:01:32;3.97;;;2.40;;
18822;SDS011;9540;51.550;7.980;2022-09-13T09:04:11;7.07;;;3.00;;
18822;SDS011;9540;51.550;7.980;2022-09-13T09:06:48;9.82;;;3.13;;
18822;SDS011;9540;51.550;7.980;2022-09-13T09:09:16;8.80;;;3.40;;
18822;SDS011;9540;51.550;7.980;2022-09-13T09:11:47;5.50;;;3.25;;
18822;SDS011;9540;51.550;7.980;2022-09-13T09:14:19;4.30;;;3.03;;
18822;SDS011;9540;51.550;7.980;2022-09-13T09:16:54;4.35;;;3.30;;
18822;SDS011;9540;51.550;7.980;2022-09-13T09:19:24;4.88;;;2.60;;
18822;SDS011;9540;51.550;7.980;2022-09-13T09:21:58;7.30;;;3.38;;
18822;SDS011;9540;51.550;7.980;2022-09-13T09:24:30;6.97;;;3.03;;
18822;SDS011;9540;51.550;7.980;2022-09-13T09:27:08;4.53;;;2.95;;
18822;SDS011;9540;51.550;7.980;2022-09-13T09:29:40;4.35;;;3.67;;
18822;SDS011;9540;51.550;7.980;2022-09-13T09:32:13;7.00;;;3.55;;
18822;SDS011;9540;51.550;7.980;2022-09-13T09:34:55;6.22;;;3.00;;
18822;SDS011;9540;51.550;7.980;2022-09-13T09:37:30;4.45;;;2.53;;
18822;SDS011;9540;51.550;7.980;2022-09-13T09:40:01;4.68;;;3.20;;
18822;SDS011;9540;51.550;7.980;2022-09-13T09:42:34;5.28;;;3.40;;
18822;SDS011;9540;51.550;7.980;2022-09-13T09:45:17;6.57;;;3.42;;
18822;SDS011;9540;51.550;7.980;2022-09-13T09:47:50;6.32;;;4.28;;
18822;SDS011;9540;51.550;7.980;2022-09-13T09:50:19;7.57;;;3.60;;
18822;SDS011;9540;51.550;7.980;2022-09-13T09:52:50;6.60;;;3.75;;
18822;SDS011;9540;51.550;7.980;2022-09-13T09:55:25;6.00;;;3.40;;
18822;SDS011;9540;51.550;7.980;2022-09-13T09:57:57;4.35;;;3.15;;
18822;SDS011;9540;51.550;7.980;2022-09-13T10:00:25;7.90;;;4.15;;
18822;SDS011;9540;51.550;7.980;2022-09-13T10:02:55;5.78;;;4.03;;
18822;SDS011;9540;51.550;7.980;2022-09-13T10:05:25;5.18;;;3.85;;
18822;SDS011;9540;51.550;7.980;2022-09-13T10:07:55;6.10;;;4.30;;
18822;SDS011;9540;51.550;7.980;2022-09-13T10:10:37;6.97;;;3.83;;
18822;SDS011;9540;51.550;7.980;2022-09-13T10:13:13;8.15;;;3.97;;
18822;SDS011;9540;51.550;7.980;2022-09-13T10:15:53;9.30;;;4.70;;
18822;SDS011;9540;51.550;7.980;2022-09-13T10:18:23;5.45;;;4.20;;
18822;SDS011;9540;51.550;7.980;2022-09-13T10:21:02;5.30;;;3.97;;
18822;SDS011;9540;51.550;7.980;2022-09-13T10:23:31;5.78;;;4.68;;
18822;SDS011;9540;51.550;7.980;2022-09-13T10:26:02;5.20;;;4.20;;
18822;SDS011;9540;51.550;7.980;2022-09-13T10:28:34;7.25;;;4.32;;
18822;SDS011;9540;51.550;7.980;2022-09-13T10:31:07;8.88;;;4.38;;
18822;SDS011;9540;51.550;7.980;2022-09-13T10:33:37;6.13;;;4.13;;
18822;SDS011;9540;51.550;7.980;2022-09-13T10:36:07;11.55;;;4.80;;
18822;SDS011;9540;51.550;7.980;2022-09-13T10:38:41;8.30;;;5.05;;
18822;SDS011;9540;51.550;7.980;2022-09-13T10:41:19;9.05;;;4.25;;
18822;SDS011;9540;51.550;7.980;2022-09-13T10:43:50;7.70;;;4.30;;
18822;SDS011;9540;51.550;7.980;2022-09-13T10:46:23;7.68;;;4.10;;
18822;SDS011;9540;51.550;7.980;2022-09-13T10:48:50;4.00;;;3.60;;
18822;SDS011;9540;51.550;7.980;2022-09-13T10:51:27;7.43;;;4.10;;
18822;SDS011;9540;51.550;7.980;2022-09-13T10:54:07;7.85;;;4.35;;
18822;SDS011;9540;51.550;7.980;2022-09-13T10:56:45;7.03;;;4.20;;
18822;SDS011;9540;51.550;7.980;2022-09-13T10:59:15;11.82;;;4.45;;
18822;SDS011;9540;51.550;7.980;2022-09-13T11:01:47;8.82;;;4.95;;
18822;SDS011;9540;51.550;7.980;2022-09-13T11:04:38;9.30;;;4.55;;
18822;SDS011;9540;51.550;7.980;2022-09-13T11:10:13;7.30;;;4.68;;
18822;SDS011;9540;51.550;7.980;2022-09-13T11:12:52;11.20;;;5.03;;
18822;SDS011;9540;51.550;7.980;2022-09-13T11:15:31;7.88;;;4.05;;
18822;SDS011;9540;51.550;7.980;2022-09-13T11:18:20;5.60;;;3.95;;
18822;SDS011;9540;51.550;7.980;2022-09-13T11:21:08;10.25;;;3.60;;
18822;SDS011;9540;51.550;7.980;2022-09-13T11:23:52;6.03;;;3.67;;
18822;SDS011;9540;51.550;7.980;2022-09-13T11:26:35;6.80;;;4.20;;
18822;SDS011;9540;51.550;7.980;2022-09-13T11:29:14;5.70;;;3.58;;
18822;SDS011;9540;51.550;7.980;2022-09-13T11:31:51;6.13;;;3.97;;
18822;SDS011;9540;51.550;7.980;2022-09-13T11:34:28;6.47;;;3.58;;
18822;SDS011;9540;51.550;7.980;2022-09-13T11:37:18;5.75;;;3.83;;
18822;SDS011;9540;51.550;7.980;2022-09-13T11:39:58;6.72;;;3.10;;
18822;SDS011;9540;51.550;7.980;2022-09-13T11:42:49;7.97;;;4.47;;
18822;SDS011;9540;51.550;7.980;2022-09-13T11:45:23;6.30;;;4.13;;
18822;SDS011;9540;51.550;7.980;2022-09-13T11:50:48;4.80;;;3.75;;
18822;SDS011;9540;51.550;7.980;2022-09-13T11:53:31;6.82;;;3.50;;
18822;SDS011;9540;51.550;7.980;2022-09-13T11:56:15;7.03;;;3.35;;
18822;SDS011;9540;51.550;7.980;2022-09-13T11:58:48;6.00;;;3.47;;
18822;SDS011;9540;51.550;7.980;2022-09-13T12:01:19;6.32;;;3.40;;
18822;SDS011;9540;51.550;7.980;2022-09-13T12:03:54;9.93;;;4.78;;
18822;SDS011;9540;51.550;7.980;2022-09-13T12:06:26;5.40;;;3.92;;
18822;SDS011;9540;51.550;7.980;2022-09-13T12:08:56;5.30;;;3.60;;
18822;SDS011;9540;51.550;7.980;2022-09-13T12:11:29;6.85;;;3.53;;
18822;SDS011;9540;51.550;7.980;2022-09-13T12:14:00;8.18;;;4.05;;
18822;SDS011;9540;51.550;7.980;2022-09-13T12:16:31;6.28;;;3.58;;
18822;SDS011;9540;51.550;7.980;2022-09-13T12:19:03;6.97;;;4.30;;
18822;SDS011;9540;51.550;7.980;2022-09-13T12:21:38;6.93;;;3.95;;
18822;SDS011;9540;51.550;7.980;2022-09-13T12:24:11;8.00;;;4.00;;
18822;SDS011;9540;51.550;7.980;2022-09-13T12:26:42;9.20;;;4.82;;
18822;SDS011;9540;51.550;7.980;2022-09-13T12:29:16;10.93;;;5.65;;
18822;SDS011;9540;51.550;7.980;2022-09-13T12:31:49;11.98;;;5.40;;
18822;SDS011;9540;51.550;7.980;2022-09-13T12:34:19;10.85;;;4.50;;
18822;SDS011;9540;51.550;7.980;2022-09-13T12:42:51;8.73;;;4.00;;
18822;SDS011;9540;51.550;7.980;2022-09-13T12:45:41;6.68;;;4.05;;
18822;SDS011;9540;51.550;7.980;2022-09-13T12:48:43;9.18;;;4.00;;
18822;SDS011;9540;51.550;7.980;2022-09-13T12:51:27;11.80;;;5.10;;
18822;SDS011;9540;51.550;7.980;2022-09-13T12:57:22;7.32;;;3.58;;
18822;SDS011;9540;51.550;7.980;2022-09-13T13:00:02;10.00;;;4.00;;
18822;SDS011;9540;51.550;7.980;2022-09-13T13:02:38;11.45;;;4.97;;
18822;SDS011;9540;51.550;7.980;2022-09-13T13:05:19;7.78;;;4.55;;
18822;SDS011;9540;51.550;7.980;2022-09-13T13:07:52;6.50;;;4.30;;
18822;SDS011;9540;51.550;7.980;2022-09-13T13:10:23;7.55;;;3.97;;
18822;SDS011;9540;51.550;7.980;2022-09-13T13:12:54;10.85;;;4.82;;
18822;SDS011;9540;51.550;7.980;2022-09-13T13:18:23;6.40;;;3.67;;
18822;SDS011;9540;51.550;7.980;2022-09-13T13:21:04;8.02;;;3.88;;
18822;SDS011;9540;51.550;7.980;2022-09-13T13:23:49;5.20;;;4.03;;
18822;SDS011;9540;51.550;7.980;2022-09-13T13:26:55;5.65;;;4.22;;
18822;SDS011;9540;51.550;7.980;2022-09-13T13:29:23;5.32;;;3.33;;
18822;SDS011;9540;51.550;7.980;2022-09-13T13:32:10;8.98;;;4.53;;
18822;SDS011;9540;51.550;7.980;2022-09-13T13:34:42;8.48;;;4.50;;
18822;SDS011;9540;51.550;7.980;2022-09-13T13:37:27;8.20;;;5.60;;
18822;SDS011;9540;51.550;7.980;2022-09-13T13:45:56;10.27;;;6.68;;
18822;SDS011;9540;51.550;7.980;2022-09-13T13:48:34;7.88;;;6.35;;
18822;SDS011;9540;51.550;7.980;2022-09-13T13:51:17;8.93;;;7.00;;
18822;SDS011;9540;51.550;7.980;2022-09-13T13:53:59;14.13;;;8.43;;
18822;SDS011;9540;51.550;7.980;2022-09-13T13:56:49;12.15;;;8.77;;
18822;SDS011;9540;51.550;7.980;2022-09-13T13:59:21;13.70;;;8.18;;
18822;SDS011;9540;51.550;7.980;2022-09-13T14:01:52;7.85;;;5.90;;
18822;SDS011;9540;51.550;7.980;2022-09-13T14:07:41;10.82;;;7.22;;
18822;SDS011;9540;51.550;7.980;2022-09-13T14:10:30;10.60;;;7.55;;
18822;SDS011;9540;51.550;7.980;2022-09-13T14:13:15;10.60;;;7.40;;
18822;SDS011;9540;51.550;7.980;2022-09-13T14:15:55;8.88;;;7.43;;
18822;SDS011;9540;51.550;7.980;2022-09-13T14:18:41;10.43;;;8.43;;
18822;SDS011;9540;51.550;7.980;2022-09-13T14:21:35;13.48;;;8.57;;
18822;SDS011;9540;51.550;7.980;2022-09-13T14:24:14;10.43;;;6.18;;
18822;SDS011;9540;51.550;7.980;2022-09-13T14:26:44;9.13;;;6.22;;
18822;SDS011;9540;51.550;7.980;2022-09-13T14:29:15;8.90;;;7.25;;
18822;SDS011;9540;51.550;7.980;2022-09-13T14:31:44;10.13;;;7.13;;
18822;SDS011;9540;51.550;7.980;2022-09-13T14:34:21;7.40;;;5.07;;
18822;SDS011;9540;51.550;7.980;2022-09-13T14:36:50;11.90;;;7.35;;
18822;SDS011;9540;51.550;7.980;2022-09-13T14:39:20;9.25;;;7.05;;
18822;SDS011;9540;51.550;7.980;2022-09-13T14:41:48;11.93;;;6.93;;
18822;SDS011;9540;51.550;7.980;2022-09-13T14:44:26;9.07;;;7.32;;
18822;SDS011;9540;51.550;7.980;2022-09-13T14:46:56;7.45;;;5.50;;
18822;SDS011;9540;51.550;7.980;2022-09-13T14:49:30;16.45;;;7.72;;
18822;SDS011;9540;51.550;7.980;2022-09-13T14:52:00;6.05;;;4.95;;
18822;SDS011;9540;51.550;7.980;2022-09-13T14:54:33;12.25;;;6.38;;
18822;SDS011;9540;51.550;7.980;2022-09-13T14:57:04;9.60;;;7.18;;
18822;SDS011;9540;51.550;7.980;2022-09-13T14:59:39;10.50;;;6.22;;
18822;SDS011;9540;51.550;7.980;2022-09-13T15:02:16;9.82;;;8.02;;
18822;SDS011;9540;51.550;7.980;2022-09-13T15:04:46;8.75;;;6.80;;
18822;SDS011;9540;51.550;7.980;2022-09-13T15:07:20;12.73;;;7.22;;
18822;SDS011;9540;51.550;7.980;2022-09-13T15:09:54;12.30;;;7.97;;
18822;SDS011;9540;51.550;7.980;2022-09-13T15:12:24;11.45;;;6.72;;
18822;SDS011;9540;51.550;7.980;2022-09-13T15:17:53;7.80;;;5.95;;
18822;SDS011;9540;51.550;7.980;2022-09-13T15:20:25;11.43;;;6.93;;
18822;SDS011;9540;51.550;7.980;2022-09-13T15:22:54;9.70;;;6.90;;
18822;SDS011;9540;51.550;7.980;2022-09-13T15:25:22;8.48;;;4.97;;
18822;SDS011;9540;51.550;7.980;2022-09-13T15:27:51;8.77;;;6.32;;
18822;SDS011;9540;51.550;7.980;2022-09-13T15:30:25;8.10;;;6.35;;
18822;SDS011;9540;51.550;7.980;2022-09-13T15:33:13;9.13;;;5.80;;
18822;SDS011;9540;51.550;7.980;2022-09-13T15:35:45;14.13;;;7.30;;
18822;SDS011;9540;51.550;7.980;2022-09-13T15:38:17;8.40;;;6.00;;
18822;SDS011;9540;51.550;7.980;2022-09-13T15:40:56;9.15;;;5.63;;
18822;SDS011;9540;51.550;7.980;2022-09-13T15:43:25;9.20;;;6.03;;
18822;SDS011;9540;51.550;7.980;2022-09-13T15:45:55;6.60;;;4.47;;
18822;SDS011;9540;51.550;7.980;2022-09-13T15:48:25;12.13;;;5.22;;
18822;SDS011;9540;51.550;7.980;2022-09-13T15:53:37;4.72;;;4.22;;
18822;SDS011;9540;51.550;7.980;2022-09-13T15:56:05;9.60;;;5.18;;
18822;SDS011;9540;51.550;7.980;2022-09-13T15:58:34;5.90;;;4.15;;
18822;SDS011;9540;51.550;7.980;2022-09-13T16:01:03;5.55;;;4.15;;
18822;SDS011;9540;51.550;7.980;2022-09-13T16:03:31;8.15;;;4.72;;
18822;SDS011;9540;51.550;7.980;2022-09-13T16:05:58;6.03;;;5.40;;
18822;SDS011;9540;51.550;7.980;2022-09-13T16:08:25;9.07;;;5.03;;
18822;SDS011;9540;51.550;7.980;2022-09-13T16:10:53;10.25;;;5.70;;
18822;SDS011;9540;51.550;7.980;2022-09-13T16:13:20;4.38;;;3.55;;
18822;SDS011;9540;51.550;7.980;2022-09-13T16:15:47;7.97;;;4.45;;
18822;SDS011;9540;51.550;7.980;2022-09-13T16:18:15;6.07;;;5.35;;
18822;SDS011;9540;51.550;7.980;2022-09-13T16:20:43;5.97;;;4.80;;
18822;SDS011;9540;51.550;7.980;2022-09-13T16:23:10;10.77;;;5.72;;